Time;durP1;ratioP1;P1;durP2;ratioP2;P2;SDS_P1;SDS_P2;PMS_P1;PMS_P2;Temp;Humidity;BMP_temperature;BMP_pressure;BME280_temperature;BME280_humidity;BME280_pressure;Samples;Min_cycle;Max_cycle;Signal;HPM_P1;HPM_P2
2022/10/03 00:01:38;;;;;;;8.30;3.00;;;;;;;11.13;75.63;99723.84;103433;1277;94943;-66
2022/10/03 00:04:16;;;;;;;6.60;2.30;;;;;;;11.06;75.66;99716.63;103135;1277;94703;-67
2022/10/03 00:07:05;;;;;;;6.70;2.20;;;;;;;11.04;75.77;99717.78;103609;1277;108320;-65
2022/10/03 00:09:33;;;;;;;7.70;2.60;;;;;;;11.07;75.83;99718.35;103493;1277;138659;-67
2022/10/03 00:12:12;;;;;;;8.00;2.70;;;;;;;11.11;75.73;99715.92;103475;1277;109355;-65
2022/10/03 00:14:47;;;;;;;7.00;2.40;;;;;;;11.09;75.64;99712.06;103334;1277;137837;-67
2022/10/03 00:17:54;;;;;;;7.70;2.50;;;;;;;11.09;75.66;99712.08;103507;1277;95200;-67
2022/10/03 00:20:48;;;;;;;7.70;2.70;;;;;;;11.07;75.71;99716.23;103103;1276;138462;-65
2022/10/03 00:23:25;;;;;;;6.80;2.70;;;;;;;11.11;75.68;99714.31;103405;1276;99371;-66
2022/10/03 00:25:59;;;;;;;7.50;3.10;;;;;;;11.10;75.50;99713.12;103322;1277;231138;-65
2022/10/03 00:28:56;;;;;;;7.70;2.80;;;;;;;11.09;75.70;99711.54;103380;1277;95180;-66
2022/10/03 00:31:39;;;;;;;6.90;3.00;;;;;;;11.07;75.61;99710.40;103244;1277;94843;-65
2022/10/03 00:34:31;;;;;;;8.50;3.20;;;;;;;11.08;75.61;99703.95;103560;1276;107665;-66
2022/10/03 00:37:11;;;;;;;9.50;3.50;;;;;;;11.10;75.69;99708.66;103447;1276;99449;-63
2022/10/03 00:39:52;;;;;;;7.90;2.80;;;;;;;11.09;75.61;99707.28;103386;1276;138038;-67
2022/10/03 00:42:39;;;;;;;8.20;3.10;;;;;;;11.06;75.80;99705.98;103482;1276;94717;-66
2022/10/03 00:45:18;;;;;;;8.00;3.40;;;;;;;11.08;75.76;99706.59;103357;1277;138122;-66
2022/10/03 00:48:06;;;;;;;8.40;2.90;;;;;;;11.04;75.77;99700.55;103504;1277;108388;-68
2022/10/03 00:50:51;;;;;;;8.50;3.20;;;;;;;11.06;75.71;99697.61;103246;1276;138313;-67
2022/10/03 00:53:41;;;;;;;8.30;2.90;;;;;;;11.06;76.01;99693.35;103343;1276;109059;-66
2022/10/03 00:56:34;;;;;;;7.40;2.70;;;;;;;11.06;75.86;99689.83;103345;1277;138618;-68
2022/10/03 00:59:28;;;;;;;7.60;3.00;;;;;;;11.02;75.93;99690.48;103554;1276;94857;-68
2022/10/03 01:01:56;;;;;;;8.40;3.10;;;;;;;10.99;75.94;99689.91;103377;1276;137816;-61
2022/10/03 01:04:50;;;;;;;8.50;3.10;;;;;;;10.99;75.98;99690.28;103502;1276;98730;-63
2022/10/03 01:07:42;;;;;;;6.70;2.70;;;;;;;10.98;76.13;99688.35;103414;1276;109542;-62
2022/10/03 01:10:15;;;;;;;7.30;2.60;;;;;;;11.00;76.04;99686.85;103606;1277;94366;-62
2022/10/03 01:13:27;;;;;;;8.20;2.60;;;;;;;10.99;76.09;99679.25;103514;1276;95011;-63
2022/10/03 01:16:11;;;;;;;7.00;2.70;;;;;;;11.00;76.15;99679.55;102591;1284;137944;-62
2022/10/03 01:18:57;;;;;;;6.30;2.70;;;;;;;11.02;76.05;99675.02;103404;1277;99416;-60
2022/10/03 01:21:46;;;;;;;7.70;3.10;;;;;;;10.99;75.93;99675.68;103337;1276;138497;-62
2022/10/03 01:24:42;;;;;;;7.10;2.90;;;;;;;11.02;75.92;99672.71;103364;1276;94772;-60
2022/10/03 01:27:23;;;;;;;9.00;3.30;;;;;;;11.04;75.90;99672.84;103256;1276;137716;-61
2022/10/03 01:30:22;;;;;;;7.40;2.50;;;;;;;11.06;75.85;99669.93;103355;1277;108458;-62
2022/10/03 01:33:09;;;;;;;8.20;2.60;;;;;;;11.05;75.75;99662.48;103373;1276;138630;-63
2022/10/03 01:35:55;;;;;;;8.30;2.60;;;;;;;11.08;75.77;99659.71;103447;1276;108781;-62
2022/10/03 01:38:32;;;;;;;7.20;2.80;;;;;;;11.12;75.57;99657.04;103283;1276;137801;-63
2022/10/03 01:41:03;;;;;;;6.00;2.40;;;;;;;11.10;75.54;99659.64;103455;1276;94856;-63
2022/10/03 01:43:50;;;;;;;7.50;2.60;;;;;;;11.08;75.62;99660.05;103497;1276;106959;-62
2022/10/03 01:47:08;;;;;;;6.60;2.70;;;;;;;11.07;75.69;99655.50;103523;1276;99601;-60
2022/10/03 01:49:45;;;;;;;7.90;2.90;;;;;;;11.05;75.76;99658.25;102503;1284;137749;-60
2022/10/03 01:52:21;;;;;;;9.20;2.80;;;;;;;11.06;75.82;99655.34;103893;1276;95416;-63
2022/10/03 01:54:55;;;;;;;8.20;2.70;;;;;;;11.07;75.77;99653.90;103410;1276;94753;-62
2022/10/03 01:57:45;;;;;;;6.20;2.60;;;;;;;11.11;75.82;99657.30;103216;1276;138364;-62
2022/10/03 02:00:19;;;;;;;7.60;2.70;;;;;;;11.09;75.76;99655.41;103397;1276;99397;-62
2022/10/03 02:03:10;;;;;;;7.50;2.70;;;;;;;11.05;75.75;99654.13;103687;1277;138284;-63
2022/10/03 02:05:54;;;;;;;8.20;3.10;;;;;;;11.03;75.86;99653.13;103446;1276;95674;-64
2022/10/03 02:08:28;;;;;;;7.30;2.90;;;;;;;11.02;76.00;99655.17;103317;1277;138418;-61
2022/10/03 02:11:07;;;;;;;9.50;3.20;;;;;;;10.99;75.84;99651.55;103539;1276;106554;-61
2022/10/03 02:13:52;;;;;;;7.80;3.70;;;;;;;10.95;75.98;99651.89;103419;1276;139481;-63
2022/10/03 02:16:35;;;;;;;7.90;3.10;;;;;;;10.93;76.09;99651.60;103766;1277;108823;-60
2022/10/03 02:19:20;;;;;;;6.30;2.80;;;;;;;10.92;76.21;99648.99;103487;1276;94309;-63
2022/10/03 02:21:51;;;;;;;9.60;2.60;;;;;;;10.93;76.42;99645.58;103467;1276;139815;-61
2022/10/03 02:24:48;;;;;;;7.40;2.60;;;;;;;10.94;76.29;99641.64;103700;1276;106682;-60
2022/10/03 02:27:55;;;;;;;8.20;2.70;;;;;;;10.94;76.25;99643.94;103284;1276;138647;-60
2022/10/03 02:30:45;;;;;;;7.20;3.00;;;;;;;10.97;76.18;99643.45;103363;1276;108791;-62
2022/10/03 02:33:55;;;;;;;6.70;2.60;;;;;;;11.04;76.22;99642.81;103302;1276;138308;-62
2022/10/03 02:36:45;;;;;;;7.00;2.90;;;;;;;11.09;75.94;99640.15;103515;1277;94758;-61
2022/10/03 02:39:31;;;;;;;7.40;2.60;;;;;;;11.12;75.91;99640.73;103244;1274;143385;-64
2022/10/03 02:42:37;;;;;;;7.30;2.40;;;;;;;11.13;75.69;99642.45;103513;1276;99439;-61
2022/10/03 02:45:35;;;;;;;5.30;2.20;;;;;;;11.12;75.63;99640.36;103334;1276;138283;-62
2022/10/03 02:48:25;;;;;;;7.80;2.40;;;;;;;11.14;75.72;99638.67;103392;1276;94332;-62
2022/10/03 02:51:22;;;;;;;6.80;2.60;;;;;;;11.15;75.46;99632.58;103368;1276;137846;-64
2022/10/03 02:54:16;;;;;;;6.70;2.00;;;;;;;11.12;75.54;99628.46;103302;1276;108754;-62
2022/10/03 02:56:47;;;;;;;6.70;2.30;;;;;;;11.12;75.44;99627.06;103310;1276;139457;-62
2022/10/03 02:59:52;;;;;;;7.00;2.70;;;;;;;11.12;75.51;99622.79;103336;1276;108984;-66
2022/10/03 03:02:39;;;;;;;5.80;2.60;;;;;;;11.11;75.44;99627.09;103307;1276;138355;-61
2022/10/03 03:05:41;;;;;;;7.60;2.90;;;;;;;11.08;75.54;99623.83;103457;1277;94370;-62
2022/10/03 03:08:16;;;;;;;8.80;2.90;;;;;;;11.08;75.48;99622.25;103298;1276;139517;-63
2022/10/03 03:11:07;;;;;;;6.50;2.50;;;;;;;11.04;75.67;99621.85;103513;1276;99467;-61
2022/10/03 03:14:16;;;;;;;6.10;2.80;;;;;;;11.06;75.80;99616.63;103416;1276;109087;-60
2022/10/03 03:16:43;;;;;;;7.20;3.00;;;;;;;11.08;75.65;99617.64;103463;1276;95098;-63
2022/10/03 03:19:21;;;;;;;8.50;2.70;;;;;;;11.09;75.75;99619.32;104150;1276;94474;-61
2022/10/03 03:21:57;;;;;;;7.40;3.00;;;;;;;11.09;75.64;99620.42;103283;1276;138365;-63
2022/10/03 03:24:53;;;;;;;7.90;3.20;;;;;;;11.10;75.75;99619.50;103421;1276;100258;-61
2022/10/03 03:27:33;;;;;;;8.20;3.10;;;;;;;11.08;75.83;99613.54;103247;1276;138583;-61
2022/10/03 03:30:14;;;;;;;7.60;2.90;;;;;;;11.04;76.07;99612.10;103259;1276;94815;-62
2022/10/03 03:33:03;;;;;;;7.40;2.90;;;;;;;11.06;76.25;99613.77;103416;1276;138242;-60
2022/10/03 03:35:42;;;;;;;7.10;2.70;;;;;;;11.08;76.38;99610.86;103510;1276;108373;-62
2022/10/03 03:38:30;;;;;;;7.50;2.70;;;;;;;11.07;76.58;99608.41;103259;1276;138852;-62
2022/10/03 03:41:25;;;;;;;6.50;2.50;;;;;;;11.08;77.08;99604.82;103460;1276;109855;-62
2022/10/03 03:44:15;;;;;;;6.00;2.30;;;;;;;11.06;77.26;99599.23;102866;1277;138606;-60
2022/10/03 03:47:13;;;;;;;7.20;2.50;;;;;;;11.06;77.37;99599.58;103466;1276;95213;-63
2022/10/03 03:50:11;;;;;;;7.30;3.00;;;;;;;11.07;77.63;99597.05;103272;1276;138420;-62
2022/10/03 03:52:57;;;;;;;6.70;2.90;;;;;;;11.10;77.62;99594.45;103079;1277;98664;-61
2022/10/03 03:55:55;;;;;;;7.50;2.60;;;;;;;11.09;77.79;99591.48;103290;1277;109412;-60
2022/10/03 03:59:07;;;;;;;6.00;2.40;;;;;;;11.06;77.84;99592.45;103461;1276;95244;-62
2022/10/03 04:02:14;;;;;;;6.00;2.30;;;;;;;11.07;77.93;99589.77;103159;1276;138524;-62
2022/10/03 04:04:54;;;;;;;6.60;2.10;;;;;;;11.09;78.00;99589.85;103462;1276;108367;-60
2022/10/03 04:08:00;;;;;;;6.00;2.20;;;;;;;11.11;77.92;99587.09;103483;1277;98403;-60
2022/10/03 04:10:57;;;;;;;7.40;2.90;;;;;;;11.15;77.99;99583.38;102678;1283;109477;-63
2022/10/03 04:13:46;;;;;;;7.90;2.50;;;;;;;11.16;77.91;99579.44;103219;1276;94698;-60
2022/10/03 04:16:14;;;;;;;6.30;2.20;;;;;;;11.15;77.98;99572.73;103957;1276;94548;-60
2022/10/03 04:18:58;;;;;;;7.50;2.80;;;;;;;11.13;78.07;99570.69;103460;1275;108358;-61
2022/10/03 04:22:00;;;;;;;9.40;3.20;;;;;;;11.12;78.14;99563.61;103328;1276;138520;-61
2022/10/03 04:24:31;;;;;;;5.80;2.50;;;;;;;11.16;78.08;99565.58;103477;1276;109209;-63
2022/10/03 04:27:17;;;;;;;6.50;2.90;;;;;;;11.19;77.98;99565.94;103400;1276;138467;-63
2022/10/03 04:30:08;;;;;;;7.90;2.60;;;;;;;11.22;77.93;99561.95;103371;1276;94796;-61
2022/10/03 04:33:28;;;;;;;6.70;2.70;;;;;;;11.25;77.97;99560.20;103317;1276;138339;-61
2022/10/03 04:36:15;;;;;;;5.90;2.30;;;;;;;11.30;78.02;99556.83;103009;1276;99330;-64
2022/10/03 04:39:02;;;;;;;7.90;2.60;;;;;;;11.31;77.98;99558.39;103334;1277;138568;-60
2022/10/03 04:41:48;;;;;;;7.10;2.70;;;;;;;11.32;78.00;99549.28;103608;1277;94332;-58
2022/10/03 04:44:29;;;;;;;7.10;2.50;;;;;;;11.29;78.37;99546.02;103452;1277;138620;-57
2022/10/03 04:47:08;;;;;;;7.00;2.40;;;;;;;11.26;78.58;99548.45;103434;1276;108413;-62
2022/10/03 04:49:45;;;;;;;25.00;15.00;;;;;;;11.22;78.93;99549.86;103454;1276;138744;-63
2022/10/03 04:52:32;;;;;;;6.30;3.00;;;;;;;11.24;79.05;99546.95;103513;1276;107460;-61
2022/10/03 04:55:05;;;;;;;6.00;2.60;;;;;;;11.24;79.23;99546.97;103565;1276;94367;-61
2022/10/03 04:57:46;;;;;;;6.50;2.60;;;;;;;11.21;79.36;99543.85;103599;1276;138885;-64
2022/10/03 05:00:30;;;;;;;6.80;2.70;;;;;;;11.19;79.43;99536.81;103434;1276;108377;-61
2022/10/03 05:03:21;;;;;;;6.70;2.80;;;;;;;11.19;79.61;99538.80;103653;1276;138651;-64
2022/10/03 05:05:55;;;;;;;6.70;2.80;;;;;;;11.18;79.76;99535.98;103564;1276;108885;-62
2022/10/03 05:08:40;;;;;;;7.60;2.80;;;;;;;11.17;79.93;99534.80;103397;1277;138614;-63
2022/10/03 05:11:26;;;;;;;6.40;2.90;;;;;;;11.19;80.14;99537.20;103498;1276;94858;-62
2022/10/03 05:14:26;;;;;;;6.60;3.00;;;;;;;11.18;80.19;99535.45;103404;1276;138818;-65
2022/10/03 05:17:08;;;;;;;8.10;3.30;;;;;;;11.15;80.39;99536.11;103362;1276;99444;-63
2022/10/03 05:19:49;;;;;;;8.00;3.50;;;;;;;11.15;80.47;99532.92;103420;1276;138808;-63
2022/10/03 05:22:41;;;;;;;8.60;3.60;;;;;;;11.17;80.39;99536.92;103640;1276;94318;-59
2022/10/03 05:25:37;;;;;;;6.30;3.50;;;;;;;11.20;80.43;99532.70;103545;1276;94609;-65
2022/10/03 05:28:27;;;;;;;7.60;3.40;;;;;;;11.20;80.49;99525.42;103587;1276;108431;-58
2022/10/03 05:31:25;;;;;;;7.10;3.30;;;;;;;11.23;80.47;99518.92;103607;1276;99720;-61
2022/10/03 05:34:16;;;;;;;7.10;3.50;;;;;;;11.24;80.43;99525.07;103372;1276;138643;-62
2022/10/03 05:37:05;;;;;;;7.60;3.20;;;;;;;11.26;80.48;99517.90;103555;1276;94702;-63
2022/10/03 05:39:33;;;;;;;6.60;3.20;;;;;;;11.28;80.51;99520.10;103523;1276;138171;-61
2022/10/03 05:42:18;;;;;;;7.30;3.50;;;;;;;11.31;80.44;99522.11;103583;1276;108435;-62
2022/10/03 05:45:11;;;;;;;7.70;3.40;;;;;;;11.32;80.42;99519.76;103517;1277;138859;-61
2022/10/03 05:47:45;;;;;;;7.80;3.60;;;;;;;11.32;80.41;99522.08;103599;1276;109512;-60
2022/10/03 05:50:32;;;;;;;6.80;3.50;;;;;;;11.32;80.31;99520.63;103451;1276;138654;-62
2022/10/03 05:53:19;;;;;;;6.90;3.50;;;;;;;11.31;80.47;99519.60;103584;1276;94861;-61
2022/10/03 05:56:12;;;;;;;6.30;3.00;;;;;;;11.32;80.49;99520.30;103432;1276;139053;-61
2022/10/03 05:58:48;;;;;;;7.40;2.90;;;;;;;11.34;80.44;99523.74;103637;1277;99531;-60
2022/10/03 06:01:27;;;;;;;7.70;3.30;;;;;;;11.36;80.37;99521.71;103532;1276;108845;-62
2022/10/03 06:04:08;;;;;;;7.00;2.80;;;;;;;11.38;80.41;99521.96;103635;1276;139249;-64
2022/10/03 06:07:03;;;;;;;6.70;2.80;;;;;;;11.40;80.36;99521.76;103539;1276;94418;-61
2022/10/03 06:09:42;;;;;;;7.50;2.80;;;;;;;11.41;80.32;99525.05;103461;1276;139042;-61
2022/10/03 06:12:31;;;;;;;6.80;2.90;;;;;;;11.45;80.21;99527.38;103616;1276;99934;-63
2022/10/03 06:15:34;;;;;;;7.10;2.70;;;;;;;11.47;80.07;99519.62;103384;1276;139054;-63
2022/10/03 06:18:21;;;;;;;7.30;2.80;;;;;;;11.49;79.91;99522.23;103493;1276;94726;-62
2022/10/03 06:21:26;;;;;;;7.80;2.70;;;;;;;11.53;79.86;99519.36;103693;1276;138766;-62
2022/10/03 06:24:15;;;;;;;7.00;2.90;;;;;;;11.54;79.63;99515.78;103453;1276;107906;-62
2022/10/03 06:26:49;;;;;;;5.70;2.20;;;;;;;11.54;79.52;99507.23;103406;1276;138730;-61
2022/10/03 06:29:53;;;;;;;6.30;2.80;;;;;;;11.56;79.45;99510.54;103500;1276;108906;-62
2022/10/03 06:32:36;;;;;;;7.60;2.80;;;;;;;11.56;79.49;99506.27;103578;1276;138536;-60
2022/10/03 06:35:10;;;;;;;6.70;2.60;;;;;;;11.58;79.61;99504.42;103526;1276;94938;-63
2022/10/03 06:38:00;;;;;;;6.60;2.60;;;;;;;11.60;79.60;99504.13;103462;1276;138524;-60
2022/10/03 06:40:47;;;;;;;6.70;2.80;;;;;;;11.61;79.64;99498.05;103494;1277;99827;-61
2022/10/03 06:43:41;;;;;;;6.70;2.90;;;;;;;11.58;79.76;99499.09;103994;1276;108861;-60
2022/10/03 06:46:15;;;;;;;8.30;3.10;;;;;;;11.57;79.96;99495.73;103571;1276;95769;-58
2022/10/03 06:48:43;;;;;;;7.20;2.80;;;;;;;11.59;79.98;99500.80;103515;1276;94814;-61
2022/10/03 06:51:33;;;;;;;6.40;2.90;;;;;;;11.55;80.26;99498.29;103241;1276;138368;-63
2022/10/03 06:54:15;;;;;;;8.30;2.70;;;;;;;11.49;80.65;99498.55;103420;1276;99444;-61
2022/10/03 06:57:08;;;;;;;7.50;2.70;;;;;;;11.44;80.91;99498.25;103408;1275;138429;-62
2022/10/03 06:59:52;;;;;;;6.80;3.00;;;;;;;11.42;81.14;99502.98;103543;1276;94702;-60
2022/10/03 07:03:25;;;;;;;6.40;3.00;;;;;;;11.40;81.36;99503.95;103471;1277;138645;-62
2022/10/03 07:06:10;;;;;;;7.90;2.80;;;;;;;11.39;81.62;99502.58;102477;1285;108174;-63
2022/10/03 07:08:58;;;;;;;6.30;2.80;;;;;;;11.38;81.86;99500.66;102468;1284;138476;-59
2022/10/03 07:11:51;;;;;;;6.30;2.60;;;;;;;11.34;81.88;99500.48;103214;1277;108575;-64
2022/10/03 07:14:54;;;;;;;6.80;3.00;;;;;;;11.33;82.31;99498.23;103394;1276;138596;-61
2022/10/03 07:17:34;;;;;;;6.60;2.50;;;;;;;11.31;82.40;99498.46;103529;1276;94334;-58
2022/10/03 07:20:13;;;;;;;6.50;2.60;;;;;;;11.32;82.39;99501.08;103417;1276;138694;-63
2022/10/03 07:22:55;;;;;;;7.60;2.50;;;;;;;11.33;82.42;99501.77;103479;1276;99588;-61
2022/10/03 07:26:11;;;;;;;6.60;2.80;;;;;;;11.36;82.41;99503.42;103521;1277;107864;-63
2022/10/03 07:28:56;;;;;;;6.10;2.50;;;;;;;11.43;82.43;99500.99;102972;1277;94409;-61
2022/10/03 07:31:45;;;;;;;5.90;2.20;;;;;;;11.45;82.20;99501.08;103606;1277;94331;-62
2022/10/03 07:34:22;;;;;;;6.10;2.10;;;;;;;11.46;82.09;99506.86;103693;1277;107576;-62
2022/10/03 07:40:44;;;;;;;5.20;2.10;;;;;;;11.46;82.09;99502.43;103599;1274;109020;-61
2022/10/03 07:43:30;;;;;;;6.00;2.10;;;;;;;11.50;82.03;99502.98;103750;1274;94576;-64
2022/10/03 07:46:14;;;;;;;5.70;1.80;;;;;;;11.57;81.95;99501.58;103733;1274;138195;-61
2022/10/03 07:49:23;;;;;;;4.40;1.50;;;;;;;11.65;81.70;99505.34;103469;1274;108087;-61
2022/10/03 07:52:19;;;;;;;4.30;1.60;;;;;;;11.84;81.37;99508.73;103374;1274;140974;-62
2022/10/03 07:55:26;;;;;;;4.90;1.50;;;;;;;11.96;80.82;99504.98;103687;1276;108773;-65
2022/10/03 07:58:45;;;;;;;5.10;1.40;;;;;;;12.11;80.38;99501.48;102813;1277;138579;-61
2022/10/03 08:01:20;;;;;;;4.60;1.50;;;;;;;12.12;79.55;99506.24;102753;1283;94544;-62
2022/10/03 08:04:32;;;;;;;5.30;1.50;;;;;;;12.14;79.29;99511.31;103639;1277;138268;-61
2022/10/03 08:07:23;;;;;;;5.00;1.40;;;;;;;12.21;79.07;99517.89;103668;1276;99405;-61
2022/10/03 08:10:01;;;;;;;5.80;1.60;;;;;;;12.26;78.85;99520.73;103596;1277;138201;-61
2022/10/03 08:12:31;;;;;;;4.90;1.90;;;;;;;12.27;78.79;99520.32;103675;1277;94743;-59
2022/10/03 08:15:26;;;;;;;4.50;1.90;;;;;;;12.25;78.73;99511.70;103615;1277;138300;-59
2022/10/03 08:18:24;;;;;;;5.40;1.90;;;;;;;12.25;78.64;99510.08;103649;1276;108405;-63
2022/10/03 08:21:04;;;;;;;4.90;2.00;;;;;;;12.22;78.79;99506.66;103458;1276;139024;-64
2022/10/03 08:23:34;;;;;;;5.70;2.20;;;;;;;12.24;79.29;99503.36;103543;1276;109352;-61
2022/10/03 08:26:14;;;;;;;5.90;2.30;;;;;;;12.23;78.95;99506.45;103560;1276;138532;-66
2022/10/03 08:29:00;;;;;;;4.80;2.10;;;;;;;12.19;78.57;99506.45;103732;1274;95059;-62
2022/10/03 08:31:47;;;;;;;5.20;2.00;;;;;;;12.17;78.47;99507.77;103719;1274;108477;-64
2022/10/03 08:34:36;;;;;;;4.50;1.90;;;;;;;12.18;78.34;99505.91;103834;1274;98890;-62
2022/10/03 08:37:19;;;;;;;5.70;2.00;;;;;;;12.19;77.85;99507.15;103759;1274;108765;-62
2022/10/03 08:40:34;;;;;;;5.00;1.90;;;;;;;12.15;77.84;99501.64;103624;1277;138015;-65
2022/10/03 08:43:41;;;;;;;6.20;2.40;;;;;;;12.14;77.97;99509.89;103815;1277;94692;-59
2022/10/03 08:46:18;;;;;;;5.60;2.50;;;;;;;12.14;78.07;99505.08;103811;1277;107381;-64
2022/10/03 08:49:13;;;;;;;4.80;2.10;;;;;;;12.17;78.27;99508.30;103785;1277;99482;-63
2022/10/03 08:52:10;;;;;;;5.40;2.30;;;;;;;12.22;78.09;99507.20;103709;1274;138676;-63
2022/10/03 08:55:16;;;;;;;6.00;2.40;;;;;;;12.24;77.66;99502.46;103707;1274;94560;-64
2022/10/03 08:58:02;;;;;;;5.90;2.30;;;;;;;12.26;77.92;99504.67;103041;1277;139020;-63
2022/10/03 09:01:01;;;;;;;6.10;2.50;;;;;;;12.29;77.66;99507.02;103624;1274;108965;-63
2022/10/03 09:04:06;;;;;;;5.40;2.40;;;;;;;12.30;77.34;99511.46;103517;1274;138502;-61
2022/10/03 09:06:37;;;;;;;6.00;2.40;;;;;;;12.32;77.25;99515.23;103824;1274;108865;-62
2022/10/03 09:09:59;;;;;;;5.50;2.60;;;;;;;12.31;77.28;99516.89;103609;1274;138612;-62
2022/10/03 09:12:33;;;;;;;5.70;2.70;;;;;;;12.31;77.42;99525.29;103747;1274;95610;-63
2022/10/03 09:15:26;;;;;;;5.20;2.30;;;;;;;12.28;77.76;99527.02;103694;1274;138274;-65
2022/10/03 09:18:07;;;;;;;5.50;2.50;;;;;;;12.25;78.40;99529.11;103856;1274;99375;-62
2022/10/03 09:20:41;;;;;;;6.50;2.80;;;;;;;12.21;78.49;99525.73;103686;1274;138854;-64
2022/10/03 09:23:47;;;;;;;5.90;2.90;;;;;;;12.19;78.94;99528.30;103558;1274;94301;-64
2022/10/03 09:26:49;;;;;;;5.60;2.70;;;;;;;12.18;78.97;99528.38;103312;1274;138449;-61
2022/10/03 09:29:46;;;;;;;5.50;2.60;;;;;;;12.15;79.23;99532.45;102955;1274;108430;-64
2022/10/03 09:32:54;;;;;;;5.60;2.60;;;;;;;12.12;79.18;99530.42;102226;1274;138732;-62
2022/10/03 09:35:40;;;;;;;6.10;2.80;;;;;;;12.09;79.24;99533.77;103542;1274;108870;-64
2022/10/03 09:38:38;;;;;;;6.30;3.30;;;;;;;12.09;79.23;99533.08;103675;1274;139127;-62
2022/10/03 09:41:12;;;;;;;5.70;3.00;;;;;;;12.08;79.23;99541.45;103715;1274;96340;-62
2022/10/03 09:44:05;;;;;;;5.90;3.10;;;;;;;12.10;79.53;99550.81;103512;1274;138414;-62
2022/10/03 09:46:39;;;;;;;6.50;3.00;;;;;;;12.08;79.58;99553.93;103782;1274;99826;-61
2022/10/03 09:49:42;;;;;;;5.90;3.40;;;;;;;12.06;79.82;99556.84;103657;1274;109006;-62
2022/10/03 09:52:34;;;;;;;6.40;3.10;;;;;;;12.03;79.96;99559.12;103712;1277;94704;-60
2022/10/03 09:55:32;;;;;;;7.00;3.40;;;;;;;12.04;80.00;99563.90;103629;1274;95195;-62
2022/10/03 09:58:11;;;;;;;6.10;3.10;;;;;;;12.06;80.11;99564.36;103759;1274;107864;-59
2022/10/03 10:00:48;;;;;;;6.10;3.00;;;;;;;12.07;80.14;99568.73;103864;1274;99398;-59
2022/10/03 10:03:37;;;;;;;6.10;2.90;;;;;;;12.08;80.12;99570.16;103678;1274;138231;-60
2022/10/03 10:06:12;;;;;;;7.50;3.30;;;;;;;12.11;80.29;99568.73;103697;1274;94260;-63
2022/10/03 10:09:01;;;;;;;6.70;3.30;;;;;;;12.18;80.26;99569.48;103676;1274;138776;-62
2022/10/03 10:12:14;;;;;;;5.90;3.30;;;;;;;12.25;80.38;99567.94;103718;1274;108310;-61
2022/10/03 10:15:08;;;;;;;6.20;3.10;;;;;;;12.27;80.50;99581.90;103546;1274;138577;-63
2022/10/03 10:17:48;;;;;;;5.40;2.70;;;;;;;12.26;80.98;99586.03;103539;1274;108806;-61
2022/10/03 10:20:38;;;;;;;6.60;2.70;;;;;;;12.21;80.97;99588.59;103564;1277;138590;-61
2022/10/03 10:23:26;;;;;;;6.20;3.10;;;;;;;12.16;81.18;99587.71;103511;1277;94612;-60
2022/10/03 10:26:00;;;;;;;5.70;3.10;;;;;;;12.17;81.31;99591.60;103449;1277;138527;-61
2022/10/03 10:29:08;;;;;;;6.80;3.30;;;;;;;12.19;81.60;99594.52;103574;1274;98359;-59
2022/10/03 10:32:03;;;;;;;6.30;3.00;;;;;;;12.21;81.61;99601.56;103627;1274;139151;-61
2022/10/03 10:35:01;;;;;;;6.10;3.20;;;;;;;12.20;81.39;99604.79;103817;1274;94401;-61
2022/10/03 10:37:48;;;;;;;7.70;2.80;;;;;;;12.17;81.25;99603.85;103787;1275;95957;-60
2022/10/03 10:40:40;;;;;;;5.70;3.10;;;;;;;12.17;81.50;99609.55;103732;1274;108789;-60
2022/10/03 10:44:06;;;;;;;6.10;2.90;;;;;;;12.14;81.25;99609.70;103693;1274;99518;-58
2022/10/03 10:47:16;;;;;;;5.30;2.50;;;;;;;12.09;81.17;99624.52;103018;1283;109366;-59
2022/10/03 10:50:21;;;;;;;4.90;2.20;;;;;;;12.08;81.15;99625.29;102921;1283;138655;-60
2022/10/03 10:53:08;;;;;;;4.80;2.00;;;;;;;12.08;81.35;99635.23;103723;1274;94760;-59
2022/10/03 10:56:03;;;;;;;5.70;1.90;;;;;;;12.07;81.36;99636.91;103605;1274;138433;-60
2022/10/03 10:59:08;;;;;;;5.70;1.70;;;;;;;12.08;80.96;99640.05;103676;1274;98532;-61
2022/10/03 11:02:04;;;;;;;4.90;1.70;;;;;;;12.05;80.35;99649.07;103645;1274;138369;-61
2022/10/03 11:04:35;;;;;;;3.50;1.30;;;;;;;12.05;80.15;99654.40;103649;1274;94427;-61
2022/10/03 11:07:10;;;;;;;4.20;1.30;;;;;;;12.11;79.40;99658.95;103726;1274;95206;-59
2022/10/03 11:09:59;;;;;;;4.00;1.30;;;;;;;12.25;78.78;99663.68;103670;1274;138486;-61
2022/10/03 11:13:21;;;;;;;3.00;1.10;;;;;;;12.40;78.45;99673.52;103774;1274;99479;-56
2022/10/03 11:16:16;;;;;;;2.90;1.00;;;;;;;12.57;77.38;99675.57;102683;1284;139642;-61
2022/10/03 11:19:02;;;;;;;3.70;1.30;;;;;;;12.69;77.17;99680.70;102754;1284;95407;-57
2022/10/03 11:21:42;;;;;;;4.60;1.70;;;;;;;12.84;76.59;99681.27;103457;1274;139487;-60
2022/10/03 11:24:38;;;;;;;3.30;1.10;;;;;;;12.97;75.23;99688.65;103695;1274;108683;-61
2022/10/03 11:27:35;;;;;;;5.20;1.10;;;;;;;13.08;71.77;99695.10;103508;1274;140159;-61
2022/10/03 11:30:22;;;;;;;4.20;1.00;;;;;;;13.15;69.55;99708.13;103304;1274;108869;-59
2022/10/03 11:33:12;;;;;;;3.30;0.90;;;;;;;13.18;68.53;99711.73;103628;1274;140798;-65
2022/10/03 11:35:54;;;;;;;3.70;1.00;;;;;;;13.18;67.84;99714.05;103725;1274;95043;-61
2022/10/03 11:38:37;;;;;;;3.30;1.00;;;;;;;13.24;68.40;99724.11;103601;1274;138976;-65
2022/10/03 11:41:32;;;;;;;3.40;0.90;;;;;;;13.27;66.91;99725.38;103594;1274;99383;-61
2022/10/03 11:44:08;;;;;;;4.00;1.00;;;;;;;13.24;64.32;99722.84;103589;1274;139004;-62
2022/10/03 11:46:53;;;;;;;3.60;1.00;;;;;;;13.23;63.90;99724.33;103761;1274;94761;-60
2022/10/03 11:49:49;;;;;;;4.50;1.10;;;;;;;13.20;63.69;99726.79;103665;1274;94411;-59
2022/10/03 11:52:36;;;;;;;4.70;1.40;;;;;;;13.21;63.62;99733.16;103528;1276;108012;-63
2022/10/03 11:55:29;;;;;;;4.40;1.10;;;;;;;13.22;63.63;99729.34;103438;1277;99452;-61
2022/10/03 11:58:26;;;;;;;3.50;1.00;;;;;;;13.27;62.79;99731.83;103236;1277;139197;-62
2022/10/03 12:01:16;;;;;;;3.80;1.10;;;;;;;13.26;62.74;99735.23;103933;1276;95095;-62
2022/10/03 12:04:19;;;;;;;4.40;1.10;;;;;;;13.24;62.01;99732.86;103633;1277;138326;-62
2022/10/03 12:10:22;;;;;;;4.30;1.30;;;;;;;13.25;61.91;99731.21;103505;1277;138420;-63
2022/10/03 12:12:55;;;;;;;5.90;1.50;;;;;;;13.31;60.74;99736.23;103622;1277;108870;-61
2022/10/03 12:15:33;;;;;;;4.40;1.10;;;;;;;13.37;60.38;99738.80;103544;1277;138381;-63
2022/10/03 12:18:12;;;;;;;3.00;1.00;;;;;;;13.46;60.10;99730.52;103488;1277;94603;-62
2022/10/03 12:20:59;;;;;;;5.40;1.30;;;;;;;13.55;59.57;99728.88;103512;1277;139871;-63
2022/10/03 12:23:39;;;;;;;4.10;1.10;;;;;;;13.66;59.56;99734.02;103240;1277;100324;-64
2022/10/03 12:26:16;;;;;;;4.40;1.10;;;;;;;13.72;58.81;99738.73;103849;1277;138275;-61
2022/10/03 12:28:50;;;;;;;3.90;1.00;;;;;;;13.78;57.53;99739.15;103649;1277;94896;-60
2022/10/03 12:31:38;;;;;;;3.40;0.90;;;;;;;13.86;56.99;99744.80;104222;1276;95635;-60
2022/10/03 12:35:13;;;;;;;3.80;1.00;;;;;;;13.96;56.92;99741.84;103763;1277;108343;-61
2022/10/03 12:38:00;;;;;;;3.30;0.90;;;;;;;14.11;55.05;99754.77;102526;1285;138811;-61
2022/10/03 12:40:38;;;;;;;3.50;0.90;;;;;;;14.20;53.44;99760.77;102732;1285;108993;-61
2022/10/03 12:43:33;;;;;;;3.50;0.80;;;;;;;14.24;53.41;99766.81;103357;1277;94529;-60
2022/10/03 12:46:09;;;;;;;4.60;0.90;;;;;;;14.19;52.34;99768.48;104134;1276;94856;-63
2022/10/03 12:48:47;;;;;;;3.80;0.80;;;;;;;14.16;52.59;99775.97;103621;1274;107401;-59
2022/10/03 12:51:14;;;;;;;4.00;1.00;;;;;;;14.14;52.79;99780.31;103551;1278;137709;-60
2022/10/03 12:54:23;;;;;;;3.80;1.10;;;;;;;14.13;52.78;99783.98;103622;1277;108980;-63
2022/10/03 12:57:06;;;;;;;3.30;0.90;;;;;;;14.15;53.23;99780.49;103386;1277;137891;-63
2022/10/03 12:59:53;;;;;;;4.70;1.30;;;;;;;14.18;53.33;99782.48;103108;1277;95189;-62
2022/10/03 13:02:37;;;;;;;3.30;0.90;;;;;;;14.21;53.42;99788.23;103325;1277;137736;-59
2022/10/03 13:05:23;;;;;;;3.40;1.00;;;;;;;14.19;52.94;99801.17;103570;1277;99383;-60